Time;durP1;ratioP1;P1;durP2;ratioP2;P2;SDS_P1;SDS_P2;PMS_P1;PMS_P2;Temp;Humidity;BMP_temperature;BMP_pressure;BME280_temperature;BME280_humidity;BME280_pressure;Samples;Min_cycle;Max_cycle;Signal;HPM_P1;HPM_P2
2021/09/15 00:00:49;;;;;;;11.75;6.55;;;20.00;96.50;;;;;;4972786;28;20031;-71
2021/09/15 00:03:14;;;;;;;10.80;6.78;;;20.00;96.50;;;;;;4972800;28;20098;-71
2021/09/15 00:05:40;;;;;;;9.98;6.97;;;19.90;96.40;;;;;;4973204;28;20585;-71
2021/09/15 00:08:05;;;;;;;10.38;6.68;;;19.90;96.40;;;;;;4971394;28;20373;-72
2021/09/15 00:10:31;;;;;;;9.98;7.50;;;19.90;96.50;;;;;;4972581;28;20155;-71
2021/09/15 00:12:56;;;;;;;14.57;7.63;;;19.80;96.60;;;;;;4972871;28;20412;-70
2021/09/15 00:15:22;;;;;;;10.10;6.82;;;19.90;96.80;;;;;;4971621;28;20042;-71
2021/09/15 00:17:48;;;;;;;11.00;7.10;;;19.90;96.60;;;;;;4973003;28;20042;-71
2021/09/15 00:20:13;;;;;;;8.43;6.85;;;19.80;97.00;;;;;;4972382;28;20042;-72
2021/09/15 00:22:39;;;;;;;9.98;6.82;;;19.80;96.80;;;;;;4972635;28;20037;-72
2021/09/15 00:25:04;;;;;;;10.98;7.00;;;19.80;96.80;;;;;;4971591;28;20031;-71
2021/09/15 00:27:30;;;;;;;9.30;7.47;;;19.80;96.90;;;;;;4972484;28;20041;-71
2021/09/15 00:29:55;;;;;;;11.60;6.70;;;19.80;96.90;;;;;;4972849;28;20031;-71
2021/09/15 00:32:21;;;;;;;10.50;7.47;;;19.80;96.80;;;;;;4972470;28;20053;-71
2021/09/15 00:34:47;;;;;;;10.02;7.35;;;19.80;96.70;;;;;;4972520;28;20067;-72
2021/09/15 00:37:12;;;;;;;8.30;6.85;;;19.80;96.90;;;;;;4972466;28;20046;-72
2021/09/15 00:39:38;;;;;;;11.85;7.07;;;19.80;97.20;;;;;;4972254;28;20507;-72
2021/09/15 00:42:04;;;;;;;12.27;7.20;;;19.80;96.80;;;;;;4972238;28;20110;-72
2021/09/15 00:44:30;;;;;;;10.77;7.40;;;19.90;96.80;;;;;;4972730;28;20116;-73
2021/09/15 00:46:56;;;;;;;11.43;7.60;;;19.80;96.80;;;;;;4972423;28;20062;-71
2021/09/15 00:49:21;;;;;;;10.20;7.32;;;19.80;96.80;;;;;;4972043;28;20046;-72
2021/09/15 00:51:47;;;;;;;10.68;6.53;;;19.80;97.00;;;;;;4972243;28;20059;-72
2021/09/15 00:54:15;;;;;;;10.95;7.65;;;19.80;97.00;;;;;;4972114;28;20405;-73
2021/09/15 00:56:41;;;;;;;13.20;7.07;;;19.80;97.30;;;;;;4972606;28;20030;-71
2021/09/15 00:59:06;;;;;;;11.52;7.00;;;19.80;97.30;;;;;;4971883;28;20039;-71
2021/09/15 01:01:32;;;;;;;10.48;7.28;;;19.80;97.00;;;;;;4971985;28;20031;-72
2021/09/15 01:04:02;;;;;;;10.82;7.78;;;19.80;97.00;;;;;;4973606;28;20536;-72
2021/09/15 01:06:29;;;;;;;10.60;6.97;;;19.80;97.10;;;;;;4975857;28;20031;-72
2021/09/15 01:08:55;;;;;;;11.33;7.33;;;19.80;97.20;;;;;;4975344;28;20414;-72
2021/09/15 01:11:21;;;;;;;11.05;7.28;;;19.70;97.30;;;;;;4975804;28;20039;-72
2021/09/15 01:13:48;;;;;;;8.57;7.40;;;19.80;97.00;;;;;;4975818;28;20035;-73
2021/09/15 01:16:14;;;;;;;10.63;7.15;;;19.80;97.10;;;;;;4975779;28;20117;-73
2021/09/15 01:18:39;;;;;;;8.70;6.65;;;19.70;97.20;;;;;;4975558;28;20031;-73
2021/09/15 01:21:09;;;;;;;13.40;7.40;;;19.70;97.50;;;;;;4975542;28;20023;-71
2021/09/15 01:23:34;;;;;;;10.07;7.03;;;19.60;97.60;;;;;;4975983;28;20036;-72
2021/09/15 01:26:00;;;;;;;13.07;7.32;;;19.50;97.80;;;;;;4975432;28;20030;-72
2021/09/15 01:28:26;;;;;;;9.13;7.10;;;19.60;97.80;;;;;;4975517;28;20030;-72
2021/09/15 01:30:51;;;;;;;11.40;8.07;;;19.60;97.60;;;;;;4975348;28;20513;-72
2021/09/15 01:33:18;;;;;;;11.52;7.22;;;19.60;97.80;;;;;;4975425;28;20031;-72
2021/09/15 01:35:44;;;;;;;9.98;6.93;;;19.50;98.00;;;;;;4975491;28;20019;-72
2021/09/15 01:38:10;;;;;;;9.48;7.25;;;19.50;98.00;;;;;;4993185;28;20049;-73
2021/09/15 01:40:37;;;;;;;11.00;7.03;;;19.50;98.20;;;;;;4994682;28;20413;-71
2021/09/15 01:43:03;;;;;;;12.50;7.32;;;19.50;98.30;;;;;;4994600;28;20043;-71
2021/09/15 01:45:29;;;;;;;13.27;7.40;;;19.40;98.50;;;;;;4994761;28;20058;-71
2021/09/15 01:47:54;;;;;;;11.50;6.82;;;19.30;98.50;;;;;;4995016;28;20132;-72
2021/09/15 01:50:20;;;;;;;17.52;7.40;;;19.20;98.70;;;;;;4994415;28;20038;-71
2021/09/15 01:52:46;;;;;;;13.52;7.65;;;19.20;98.60;;;;;;4994537;28;20810;-72
2021/09/15 01:55:23;;;;;;;10.85;7.50;;;19.30;98.70;;;;;;4994455;28;20038;-72
2021/09/15 01:57:49;;;;;;;11.95;7.63;;;19.20;98.80;;;;;;4994377;28;20041;-72
2021/09/15 02:00:15;;;;;;;13.48;8.18;;;19.20;98.80;;;;;;4993980;28;20030;-71
2021/09/15 02:02:44;;;;;;;12.77;7.85;;;19.20;98.60;;;;;;4994752;28;20163;-71
2021/09/15 02:05:10;;;;;;;10.55;7.35;;;19.20;98.70;;;;;;4994192;28;20077;-73
2021/09/15 02:07:36;;;;;;;10.00;7.93;;;19.20;98.80;;;;;;4994117;28;20050;-72
2021/09/15 02:10:05;;;;;;;10.68;7.65;;;19.20;98.80;;;;;;4994217;28;20527;-72
2021/09/15 02:12:31;;;;;;;19.55;9.00;;;19.20;98.80;;;;;;4993180;28;20053;-72
2021/09/15 02:14:56;;;;;;;12.27;8.05;;;19.20;98.80;;;;;;4993548;28;20421;-73
2021/09/15 02:17:25;;;;;;;9.68;7.13;;;19.10;99.00;;;;;;4994103;28;20484;-73
2021/09/15 02:19:50;;;;;;;21.10;9.15;;;19.10;99.10;;;;;;4993909;28;20034;-72
2021/09/15 02:22:17;;;;;;;13.60;8.35;;;19.10;99.10;;;;;;4994044;28;20456;-71
2021/09/15 02:24:42;;;;;;;15.02;7.70;;;19.10;99.20;;;;;;4993575;28;20114;-72
2021/09/15 02:27:08;;;;;;;16.60;7.97;;;19.00;99.30;;;;;;4993733;28;20114;-72
2021/09/15 02:29:33;;;;;;;10.10;7.45;;;19.00;99.40;;;;;;4994207;28;20031;-71
2021/09/15 02:31:59;;;;;;;13.20;8.10;;;19.00;99.40;;;;;;4993873;28;20118;-73
2021/09/15 02:34:25;;;;;;;17.13;8.50;;;19.00;99.50;;;;;;4994048;28;20034;-72
2021/09/15 02:36:50;;;;;;;12.98;7.57;;;19.00;99.30;;;;;;4992352;28;20636;-71
2021/09/15 02:39:16;;;;;;;11.82;7.82;;;19.10;98.90;;;;;;4992505;28;20032;-69
2021/09/15 02:41:42;;;;;;;12.23;7.38;;;19.20;99.30;;;;;;4994035;28;20032;-72
2021/09/15 02:44:08;;;;;;;15.35;7.53;;;19.00;99.50;;;;;;4993573;28;20046;-70
2021/09/15 02:46:33;;;;;;;9.88;6.97;;;19.00;99.70;;;;;;4993342;28;20065;-70
2021/09/15 02:49:00;;;;;;;9.35;7.25;;;19.00;99.70;;;;;;4993416;28;20065;-72
2021/09/15 02:51:26;;;;;;;10.65;7.00;;;19.00;99.70;;;;;;4993392;28;20038;-70
2021/09/15 02:53:52;;;;;;;11.75;7.82;;;19.00;99.70;;;;;;4993727;28;20034;-71
2021/09/15 02:56:17;;;;;;;10.38;7.95;;;19.00;99.70;;;;;;4993266;28;20057;-71
2021/09/15 02:58:43;;;;;;;12.60;6.93;;;19.00;99.70;;;;;;4992935;28;20122;-72
2021/09/15 03:01:09;;;;;;;11.80;6.75;;;19.00;99.70;;;;;;4992065;28;20030;-71
2021/09/15 03:03:35;;;;;;;9.40;7.40;;;19.00;99.70;;;;;;4993250;28;20035;-71
2021/09/15 03:06:01;;;;;;;12.20;7.43;;;19.00;99.70;;;;;;4993124;28;20022;-70
2021/09/15 03:08:26;;;;;;;13.13;7.93;;;18.90;99.70;;;;;;4993349;28;20088;-71
2021/09/15 03:10:52;;;;;;;11.00;7.40;;;18.90;99.80;;;;;;4992934;28;20125;-71
2021/09/15 03:13:18;;;;;;;10.65;7.45;;;18.90;99.80;;;;;;4992994;28;20050;-71
2021/09/15 03:15:44;;;;;;;13.65;7.95;;;18.90;99.90;;;;;;4992744;28;20461;-71
2021/09/15 03:18:09;;;;;;;10.60;8.02;;;18.90;99.90;;;;;;4992981;28;20022;-72
2021/09/15 03:20:35;;;;;;;13.32;8.00;;;19.00;99.70;;;;;;4993180;28;20031;-72
2021/09/15 03:23:01;;;;;;;10.65;7.68;;;19.00;99.70;;;;;;4992880;28;20054;-71
2021/09/15 03:25:26;;;;;;;11.85;8.30;;;19.10;99.70;;;;;;4992949;28;20487;-71
2021/09/15 03:27:52;;;;;;;8.98;7.57;;;19.10;99.80;;;;;;4992515;28;20027;-71
2021/09/15 03:30:17;;;;;;;17.40;7.63;;;19.10;99.80;;;;;;4992604;28;20042;-70
2021/09/15 03:32:43;;;;;;;8.98;7.60;;;19.10;99.50;;;;;;4992996;28;20033;-71
2021/09/15 03:35:09;;;;;;;10.63;7.25;;;19.20;99.60;;;;;;4992666;28;20038;-72
2021/09/15 03:37:34;;;;;;;13.25;8.07;;;19.20;99.60;;;;;;4992650;28;20081;-71
2021/09/15 03:40:00;;;;;;;11.98;7.55;;;19.20;99.50;;;;;;4992490;28;20042;-71
2021/09/15 03:42:25;;;;;;;11.70;8.10;;;19.20;99.70;;;;;;4992523;28;20049;-72
2021/09/15 03:44:51;;;;;;;14.70;8.43;;;19.30;99.60;;;;;;4992837;28;20038;-72
2021/09/15 03:47:18;;;;;;;15.00;7.50;;;19.20;99.60;;;;;;4992391;28;20035;-72
2021/09/15 03:49:43;;;;;;;10.27;7.18;;;19.30;99.50;;;;;;4992162;28;20027;-72
2021/09/15 03:52:09;;;;;;;12.32;7.65;;;19.20;99.70;;;;;;4992315;28;20034;-72
2021/09/15 03:54:35;;;;;;;10.80;7.85;;;19.30;99.50;;;;;;4992258;28;20030;-73
2021/09/15 03:57:01;;;;;;;11.15;8.23;;;19.30;99.60;;;;;;4992357;28;20073;-72
2021/09/15 03:59:27;;;;;;;12.82;7.22;;;19.40;99.40;;;;;;4991407;28;20030;-72
2021/09/15 04:01:52;;;;;;;15.35;8.15;;;19.30;99.40;;;;;;4992009;28;20081;-72
2021/09/15 04:04:18;;;;;;;11.15;8.40;;;19.40;99.40;;;;;;4992183;28;20034;-73
2021/09/15 04:06:44;;;;;;;10.70;7.15;;;19.40;99.20;;;;;;4991945;28;20042;-72
2021/09/15 04:09:09;;;;;;;12.05;8.18;;;19.40;99.30;;;;;;4992103;28;20026;-73
2021/09/15 04:11:35;;;;;;;10.82;7.13;;;19.40;99.40;;;;;;4992493;28;20026;-73
2021/09/15 04:14:02;;;;;;;10.98;7.32;;;19.50;99.00;;;;;;4991839;28;20100;-72
2021/09/15 04:16:27;;;;;;;10.50;7.10;;;19.50;99.30;;;;;;4991970;28;20034;-72
2021/09/15 04:18:53;;;;;;;9.98;7.30;;;19.60;99.20;;;;;;4991759;28;20515;-72
2021/09/15 04:21:18;;;;;;;10.23;7.00;;;19.50;99.00;;;;;;4991789;28;20031;-72
2021/09/15 04:31:47;;;;;;;12.98;7.88;;;19.60;99.20;;;;;;4991905;28;20380;-72
2021/09/15 04:34:13;;;;;;;10.18;8.00;;;19.60;99.50;;;;;;4991698;28;20034;-71
2021/09/15 04:36:38;;;;;;;10.80;8.25;;;19.60;99.70;;;;;;4991727;28;20038;-71
2021/09/15 04:39:04;;;;;;;11.85;7.68;;;19.60;99.90;;;;;;4993375;28;20041;-72
2021/09/15 04:41:29;;;;;;;12.98;7.75;;;19.60;99.80;;;;;;4996240;28;20026;-72
2021/09/15 04:43:55;;;;;;;8.70;7.65;;;19.60;99.70;;;;;;4995660;28;20428;-72
2021/09/15 04:46:21;;;;;;;10.02;7.63;;;19.60;99.60;;;;;;4995716;28;20466;-72
2021/09/15 04:48:46;;;;;;;12.07;7.53;;;19.60;99.60;;;;;;4995644;28;20038;-72
2021/09/15 04:51:12;;;;;;;13.90;7.53;;;19.60;99.50;;;;;;4995532;28;20034;-72
2021/09/15 04:53:38;;;;;;;19.50;7.80;;;19.60;99.70;;;;;;4996167;28;20026;-72
2021/09/15 04:56:04;;;;;;;11.60;7.78;;;19.60;99.80;;;;;;4995413;28;20081;-71
2021/09/15 04:58:29;;;;;;;9.35;7.07;;;19.60;99.80;;;;;;4995244;28;20041;-71
2021/09/15 05:00:55;;;;;;;9.45;7.38;;;19.60;99.90;;;;;;4995155;28;20118;-71
2021/09/15 05:03:21;;;;;;;11.98;7.00;;;19.60;99.90;;;;;;4995043;28;20714;-72
2021/09/15 05:05:46;;;;;;;10.88;7.20;;;19.60;99.90;;;;;;4995680;28;20030;-72
2021/09/15 05:08:12;;;;;;;12.50;7.35;;;19.50;99.90;;;;;;4995218;28;20115;-72
2021/09/15 05:10:38;;;;;;;13.25;7.18;;;19.50;99.90;;;;;;4995150;28;20038;-73
2021/09/15 05:13:03;;;;;;;12.18;7.13;;;19.40;99.90;;;;;;4995076;28;20026;-71
2021/09/15 05:15:29;;;;;;;9.48;7.28;;;19.40;99.90;;;;;;4995185;28;20041;-71
2021/09/15 05:17:55;;;;;;;13.13;8.13;;;19.40;99.90;;;;;;4986008;28;20025;-71
2021/09/15 05:20:21;;;;;;;9.80;7.47;;;19.40;99.90;;;;;;4975620;28;20042;-74
2021/09/15 05:22:49;;;;;;;14.30;7.88;;;19.40;99.90;;;;;;4975599;28;20031;-72
2021/09/15 05:25:17;;;;;;;12.02;8.02;;;19.40;99.90;;;;;;4975300;28;20038;-71
2021/09/15 05:27:43;;;;;;;11.30;7.50;;;19.40;99.90;;;;;;4975471;28;20092;-71
2021/09/15 05:30:09;;;;;;;12.77;9.05;;;19.40;99.90;;;;;;4975302;28;20469;-71
2021/09/15 05:32:36;;;;;;;13.50;8.40;;;19.40;99.90;;;;;;4975615;28;20417;-71
2021/09/15 05:35:02;;;;;;;15.45;8.85;;;19.30;99.90;;;;;;4975322;28;20046;-70
2021/09/15 05:37:28;;;;;;;17.10;8.40;;;19.40;99.90;;;;;;4975106;28;20474;-70
2021/09/15 05:39:53;;;;;;;13.98;7.15;;;19.50;99.90;;;;;;4974866;28;20039;-71
2021/09/15 05:42:19;;;;;;;17.08;8.68;;;19.50;99.90;;;;;;4975293;28;20511;-70
2021/09/15 05:44:45;;;;;;;9.48;7.80;;;19.50;99.90;;;;;;4975519;28;20038;-71
2021/09/15 05:47:10;;;;;;;10.07;7.53;;;19.60;99.80;;;;;;4974976;28;20031;-72
2021/09/15 05:49:36;;;;;;;17.80;8.45;;;19.60;99.80;;;;;;4974997;28;20023;-71
2021/09/15 05:52:02;;;;;;;13.23;8.50;;;19.60;99.90;;;;;;4974927;28;20031;-71
2021/09/15 05:54:27;;;;;;;15.85;8.25;;;19.50;99.90;;;;;;4974979;28;20050;-70
2021/09/15 05:56:53;;;;;;;11.90;8.32;;;19.50;99.90;;;;;;4975177;28;20089;-70
2021/09/15 05:59:18;;;;;;;11.25;8.73;;;19.60;99.90;;;;;;4974645;28;20035;-70
2021/09/15 06:01:44;;;;;;;14.55;8.98;;;19.60;99.90;;;;;;4974725;28;20370;-70
2021/09/15 06:04:10;;;;;;;13.63;8.90;;;19.60;99.90;;;;;;4974818;28;20031;-70
2021/09/15 06:06:35;;;;;;;17.20;8.13;;;19.60;99.90;;;;;;4974319;28;20457;-70
2021/09/15 06:09:01;;;;;;;11.43;9.00;;;19.60;99.90;;;;;;4974657;28;20449;-70
2021/09/15 06:11:27;;;;;;;13.98;8.43;;;19.70;99.90;;;;;;4975362;28;20038;-70
2021/09/15 06:13:54;;;;;;;13.10;8.55;;;19.70;99.80;;;;;;4974710;28;20117;-70
2021/09/15 06:16:24;;;;;;;12.20;8.03;;;19.80;99.90;;;;;;4974718;28;20042;-70
2021/09/15 06:18:50;;;;;;;12.40;7.78;;;19.80;99.90;;;;;;4974354;28;20484;-70
2021/09/15 06:21:17;;;;;;;13.80;8.02;;;19.70;99.90;;;;;;4974267;28;20053;-69
2021/09/15 06:23:43;;;;;;;13.40;8.43;;;19.80;99.90;;;;;;4973808;28;20031;-70
2021/09/15 06:26:08;;;;;;;15.48;8.05;;;19.80;99.90;;;;;;4974337;28;20114;-70
2021/09/15 06:28:34;;;;;;;14.40;7.90;;;19.80;99.90;;;;;;4974492;28;20514;-70
2021/09/15 06:31:01;;;;;;;14.45;8.45;;;19.70;99.90;;;;;;4974193;28;20563;-71
2021/09/15 06:33:26;;;;;;;11.00;8.20;;;19.70;99.90;;;;;;4973737;28;20093;-71
2021/09/15 06:35:52;;;;;;;13.90;7.72;;;19.70;99.90;;;;;;4974627;28;20030;-71
2021/09/15 06:38:19;;;;;;;11.55;7.88;;;19.70;99.90;;;;;;4974049;28;20035;-71
2021/09/15 06:40:44;;;;;;;11.68;7.65;;;19.70;99.90;;;;;;4973074;28;20049;-71
2021/09/15 06:43:10;;;;;;;14.10;8.32;;;19.80;99.90;;;;;;4972882;28;20568;-71
2021/09/15 06:45:36;;;;;;;11.15;7.93;;;19.70;99.90;;;;;;4974018;28;20381;-71
2021/09/15 06:48:01;;;;;;;13.48;7.72;;;19.80;99.90;;;;;;4973820;28;20026;-70
2021/09/15 06:50:27;;;;;;;18.33;8.05;;;19.80;99.90;;;;;;4974221;28;20027;-71
2021/09/15 06:52:53;;;;;;;13.65;8.43;;;19.80;99.90;;;;;;4973806;28;20154;-70
2021/09/15 06:55:18;;;;;;;14.60;7.78;;;19.80;99.90;;;;;;4973885;28;20117;-70
2021/09/15 06:57:44;;;;;;;11.23;7.70;;;19.80;99.90;;;;;;4973808;28;20480;-70
2021/09/15 07:00:11;;;;;;;14.88;8.40;;;19.80;99.90;;;;;;4973440;28;20027;-71
2021/09/15 07:02:37;;;;;;;20.08;8.10;;;19.80;99.90;;;;;;4973535;28;20357;-70
2021/09/15 07:05:03;;;;;;;15.70;9.90;;;19.80;99.90;;;;;;4973345;28;20063;-70
2021/09/15 07:07:29;;;;;;;14.43;10.00;;;19.80;99.90;;;;;;4973445;28;20058;-70
2021/09/15 07:09:54;;;;;;;17.67;10.73;;;19.80;99.90;;;;;;4973497;28;20030;-71
2021/09/15 07:12:20;;;;;;;23.92;12.95;;;19.80;99.90;;;;;;4973563;28;20421;-70
2021/09/15 07:14:45;;;;;;;12.65;7.97;;;19.80;99.90;;;;;;4973774;28;20057;-70
2021/09/15 07:17:11;;;;;;;14.57;7.85;;;19.90;99.90;;;;;;4973565;28;20035;-71
2021/09/15 07:19:37;;;;;;;15.18;8.30;;;19.90;99.90;;;;;;4973347;28;20030;-71
2021/09/15 07:22:03;;;;;;;15.60;9.93;;;19.80;99.90;;;;;;4973251;28;20500;-70
2021/09/15 07:24:28;;;;;;;17.38;9.48;;;19.80;99.90;;;;;;4973326;28;20580;-71
2021/09/15 07:26:54;;;;;;;14.23;9.00;;;19.80;99.90;;;;;;4972779;28;20110;-70
2021/09/15 07:29:20;;;;;;;13.25;8.02;;;19.80;99.90;;;;;;4973119;28;20034;-70
2021/09/15 07:31:46;;;;;;;11.30;7.53;;;19.80;99.90;;;;;;4972150;28;20031;-71
2021/09/15 07:34:11;;;;;;;9.18;7.63;;;19.90;99.90;;;;;;4973248;28;20101;-70
2021/09/15 07:36:39;;;;;;;23.02;14.95;;;19.90;99.90;;;;;;4973022;28;20035;-69
2021/09/15 07:39:05;;;;;;;25.00;10.95;;;19.90;99.90;;;;;;4971879;28;20054;-69
2021/09/15 07:41:31;;;;;;;14.65;8.95;;;19.90;99.90;;;;;;4972240;28;20049;-69
2021/09/15 07:43:56;;;;;;;14.27;9.32;;;19.80;99.90;;;;;;4972609;28;20508;-69
2021/09/15 07:46:22;;;;;;;15.75;9.45;;;19.90;99.90;;;;;;4973072;28;20027;-68
2021/09/15 07:48:49;;;;;;;17.20;9.02;;;19.90;99.90;;;;;;4972950;28;20045;-70
2021/09/15 07:51:15;;;;;;;11.93;8.40;;;20.00;99.90;;;;;;4972911;28;20023;-69
2021/09/15 07:53:41;;;;;;;13.45;8.70;;;20.10;99.90;;;;;;4973201;28;20472;-69
2021/09/15 07:56:07;;;;;;;17.17;9.80;;;20.10;99.90;;;;;;4972958;28;20114;-70
2021/09/15 07:58:32;;;;;;;17.88;11.38;;;20.20;99.90;;;;;;4972515;28;20453;-69
2021/09/15 08:00:58;;;;;;;12.45;9.35;;;20.30;99.90;;;;;;4972545;28;20035;-69
2021/09/15 08:03:24;;;;;;;18.02;10.70;;;20.40;99.90;;;;;;4971452;28;20122;-70
2021/09/15 08:05:49;;;;;;;11.48;9.50;;;20.50;99.90;;;;;;4973021;28;20126;-70
2021/09/15 08:08:15;;;;;;;13.35;10.07;;;20.50;99.90;;;;;;4972442;28;20066;-70
2021/09/15 08:10:41;;;;;;;17.00;9.48;;;20.70;99.90;;;;;;4971483;28;20109;-70
2021/09/15 08:13:07;;;;;;;13.55;8.55;;;20.70;99.90;;;;;;4971779;28;20373;-70
2021/09/15 08:15:33;;;;;;;15.10;8.45;;;20.80;99.90;;;;;;4972282;28;20058;-70
2021/09/15 08:17:58;;;;;;;12.65;8.57;;;20.80;99.90;;;;;;4972353;28;20065;-70
2021/09/15 08:20:24;;;;;;;11.38;8.63;;;20.90;99.90;;;;;;4972761;28;20026;-70
2021/09/15 08:22:50;;;;;;;14.25;10.98;;;20.90;99.90;;;;;;4972260;28;20037;-70
2021/09/15 08:25:16;;;;;;;14.32;9.60;;;20.90;99.90;;;;;;4972435;28;20038;-71
2021/09/15 08:27:41;;;;;;;18.17;11.05;;;20.90;99.90;;;;;;4972607;28;20353;-68
2021/09/15 08:30:08;;;;;;;15.45;8.32;;;20.90;99.90;;;;;;4972419;28;20100;-71
2021/09/15 08:32:34;;;;;;;14.35;8.57;;;21.00;99.90;;;;;;4972574;28;20027;-71
2021/09/15 08:34:59;;;;;;;15.82;8.80;;;21.10;99.90;;;;;;4972389;28;20030;-71
2021/09/15 08:37:25;;;;;;;14.52;8.77;;;21.10;99.90;;;;;;4972266;28;20031;-71
2021/09/15 08:39:51;;;;;;;15.70;8.75;;;21.10;99.90;;;;;;4972005;28;20030;-71
2021/09/15 08:42:16;;;;;;;9.85;8.40;;;21.10;99.90;;;;;;4971060;28;20037;-71
2021/09/15 08:44:42;;;;;;;17.80;8.77;;;21.10;99.90;;;;;;4972337;28;20461;-70
2021/09/15 08:47:09;;;;;;;18.77;9.35;;;21.30;99.90;;;;;;4971829;28;20144;-71
2021/09/15 08:49:35;;;;;;;13.83;9.13;;;21.40;99.90;;;;;;4971818;28;20055;-70
2021/09/15 08:52:01;;;;;;;14.25;9.25;;;21.40;99.90;;;;;;4972071;28;20117;-71
2021/09/15 08:54:26;;;;;;;12.98;9.02;;;21.40;99.90;;;;;;4972084;28;20038;-71
2021/09/15 08:56:52;;;;;;;12.73;8.27;;;21.40;99.90;;;;;;4972896;28;20019;-71
2021/09/15 08:59:18;;;;;;;12.77;9.30;;;21.40;99.90;;;;;;4971774;28;20039;-71
2021/09/15 09:01:45;;;;;;;14.73;8.82;;;21.50;99.90;;;;;;4970945;28;20031;-71
2021/09/15 09:04:15;;;;;;;14.50;8.75;;;21.50;99.90;;;;;;4971959;28;20114;-71
2021/09/15 09:06:45;;;;;;;12.35;8.77;;;21.60;99.90;;;;;;4971943;28;20041;-70
2021/09/15 09:09:10;;;;;;;12.60;8.57;;;21.60;99.90;;;;;;4972022;28;20173;-71
2021/09/15 09:11:37;;;;;;;17.50;9.52;;;21.60;99.90;;;;;;4972551;28;20034;-71
2021/09/15 09:14:08;;;;;;;13.70;9.07;;;21.60;99.90;;;;;;4971904;28;20027;-70
2021/09/15 09:16:49;;;;;;;12.57;8.60;;;21.60;99.90;;;;;;4971789;28;20361;-70
2021/09/15 09:19:17;;;;;;;12.35;9.25;;;21.80;99.90;;;;;;4971850;28;20031;-70
2021/09/15 09:21:51;;;;;;;12.15;8.57;;;21.80;99.90;;;;;;4971859;28;20464;-69
2021/09/15 09:24:24;;;;;;;20.25;11.23;;;21.90;99.90;;;;;;4972280;28;20105;-70
2021/09/15 09:26:57;;;;;;;14.68;11.35;;;22.00;99.90;;;;;;4975913;28;20109;-69
2021/09/15 09:29:34;;;;;;;14.63;9.40;;;22.20;99.90;;;;;;4975315;28;20042;-70
2021/09/15 09:32:02;;;;;;;16.02;8.70;;;22.40;99.90;;;;;;4975693;28;20194;-70
2021/09/15 09:34:30;;;;;;;11.10;8.10;;;22.60;99.90;;;;;;4974312;28;20101;-69
2021/09/15 09:37:06;;;;;;;16.77;8.32;;;22.80;99.90;;;;;;4975306;28;20035;-70
2021/09/15 09:39:55;;;;;;;12.95;9.50;;;22.90;99.90;;;;;;4974937;28;20035;-70
2021/09/15 09:42:23;;;;;;;16.38;9.05;;;23.10;99.90;;;;;;4974935;28;20560;-70
2021/09/15 09:44:54;;;;;;;14.60;8.77;;;23.10;99.90;;;;;;4975526;28;20041;-72
2021/09/15 09:47:24;;;;;;;11.48;8.70;;;23.10;99.90;;;;;;4974711;28;20031;-70
2021/09/15 09:50:17;;;;;;;11.30;9.07;;;23.10;99.90;;;;;;4975171;28;20424;-70
2021/09/15 09:53:09;;;;;;;17.40;9.43;;;23.20;99.90;;;;;;4975117;28;20110;-70
2021/09/15 09:55:37;;;;;;;10.82;8.95;;;23.20;99.90;;;;;;4974985;28;20489;-70
2021/09/15 09:58:04;;;;;;;18.92;10.93;;;23.20;99.90;;;;;;4974769;28;20034;-70
2021/09/15 10:00:30;;;;;;;19.53;12.57;;;23.30;99.70;;;;;;4974532;28;20047;-70
2021/09/15 10:02:58;;;;;;;11.07;7.80;;;23.30;99.90;;;;;;4975145;28;20177;-70
2021/09/15 10:05:24;;;;;;;;;;;23.60;99.90;;;;;;4975335;28;20123;-70
2021/09/15 10:07:51;;;;;;;13.95;8.00;;;23.90;99.40;;;;;;4974751;28;20009;-71
2021/09/15 10:10:19;;;;;;;14.10;7.60;;;23.90;99.00;;;;;;4974624;28;20039;-71
2021/09/15 10:12:46;;;;;;;12.65;7.95;;;24.10;98.90;;;;;;4968513;28;20039;-71
2021/09/15 10:15:12;;;;;;;14.07;7.30;;;24.20;98.60;;;;;;4957265;28;20038;-71
2021/09/15 10:17:44;;;;;;;12.38;9.20;;;24.30;98.60;;;;;;4974887;28;20449;-71
2021/09/15 10:20:14;;;;;;;12.32;8.38;;;24.30;98.60;;;;;;4974189;28;20051;-75
2021/09/15 10:22:48;;;;;;;14.85;9.75;;;24.20;98.10;;;;;;4974369;28;20031;-73
2021/09/15 10:25:14;;;;;;;11.80;8.82;;;24.20;98.40;;;;;;4974269;28;20034;-71
2021/09/15 10:28:09;;;;;;;9.00;7.60;;;24.20;98.20;;;;;;4973135;28;20114;-71
2021/09/15 10:30:53;;;;;;;10.75;7.75;;;24.20;98.20;;;;;;4974053;28;20517;-70
2021/09/15 10:33:36;;;;;;;10.55;7.45;;;24.10;98.20;;;;;;4973936;28;20389;-71
2021/09/15 10:36:11;;;;;;;12.70;8.05;;;24.00;98.20;;;;;;4973268;28;20026;-70
2021/09/15 10:38:59;;;;;;;13.18;8.13;;;23.90;98.30;;;;;;4974405;28;20038;-71
2021/09/15 10:41:31;;;;;;;10.95;7.82;;;23.80;98.40;;;;;;4973446;28;20119;-71
2021/09/15 10:44:10;;;;;;;11.35;8.65;;;23.70;98.80;;;;;;4973946;28;20042;-71
2021/09/15 10:46:37;;;;;;;16.10;9.05;;;23.70;98.70;;;;;;4974074;28;20094;-71
2021/09/15 10:49:21;;;;;;;20.02;8.75;;;23.50;98.80;;;;;;4974039;28;20027;-71
2021/09/15 10:52:09;;;;;;;13.05;8.90;;;23.40;99.00;;;;;;4973807;28;20031;-71
2021/09/15 10:54:55;;;;;;;11.95;8.68;;;23.40;99.20;;;;;;4973705;28;20031;-70
2021/09/15 10:57:26;;;;;;;12.98;9.25;;;23.40;99.10;;;;;;4973994;28;20035;-70
2021/09/15 10:59:54;;;;;;;12.25;8.85;;;23.30;99.30;;;;;;4973744;28;20158;-70
2021/09/15 11:02:32;;;;;;;11.05;8.80;;;23.30;99.50;;;;;;4973767;28;20045;-70
2021/09/15 11:05:19;;;;;;;16.30;10.82;;;23.30;99.30;;;;;;4972492;28;20062;-70
2021/09/15 11:07:57;;;;;;;18.83;12.85;;;23.20;99.20;;;;;;4973055;28;20638;-70
2021/09/15 11:10:34;;;;;;;15.43;9.68;;;23.20;99.20;;;;;;4973241;28;20114;-70
2021/09/15 11:13:12;;;;;;;14.85;9.55;;;23.20;99.40;;;;;;4972214;28;20035;-70
2021/09/15 11:15:41;;;;;;;12.38;9.10;;;23.20;99.20;;;;;;4973331;28;20042;-70
2021/09/15 11:18:08;;;;;;;16.13;9.60;;;23.20;99.30;;;;;;4973360;28;20026;-69
2021/09/15 11:20:36;;;;;;;14.35;10.27;;;23.30;99.40;;;;;;4973755;28;20313;-70
2021/09/15 11:23:08;;;;;;;16.42;11.63;;;23.40;99.20;;;;;;4973301;28;20035;-70
2021/09/15 11:25:34;;;;;;;13.10;9.75;;;23.40;99.30;;;;;;4973120;28;20027;-70
2021/09/15 11:28:15;;;;;;;13.82;9.63;;;23.50;99.20;;;;;;4973136;28;20324;-70
2021/09/15 11:30:56;;;;;;;13.10;8.57;;;23.60;99.30;;;;;;4971968;28;20481;-71
2021/09/15 11:33:30;;;;;;;15.48;8.85;;;23.70;99.20;;;;;;4973003;28;20039;-72
2021/09/15 11:35:58;;;;;;;14.25;8.30;;;23.80;98.90;;;;;;4972401;28;20087;-70
2021/09/15 11:38:26;;;;;;;10.55;8.57;;;23.80;98.80;;;;;;4972963;28;20035;-71
2021/09/15 11:41:02;;;;;;;14.68;9.40;;;23.90;98.60;;;;;;4972931;28;20077;-70
2021/09/15 11:43:28;;;;;;;17.52;11.73;;;23.80;98.50;;;;;;4972927;28;20031;-72
2021/09/15 11:45:54;;;;;;;15.88;9.68;;;23.90;98.30;;;;;;4972957;28;20065;-71
2021/09/15 11:48:27;;;;;;;16.15;10.25;;;23.80;98.30;;;;;;4972870;28;20046;-72
2021/09/15 11:50:53;;;;;;;12.13;8.77;;;23.80;98.20;;;;;;4973192;28;20109;-70
2021/09/15 11:53:19;;;;;;;12.95;8.77;;;23.70;98.30;;;;;;4972549;28;20170;-71
2021/09/15 11:55:51;;;;;;;12.63;8.65;;;23.60;98.30;;;;;;4972319;28;20035;-71
2021/09/15 11:58:17;;;;;;;12.90;7.90;;;23.50;98.40;;;;;;4972645;28;20027;-71
2021/09/15 12:00:43;;;;;;;10.85;8.55;;;23.50;98.60;;;;;;4972198;28;20090;-72
2021/09/15 12:03:12;;;;;;;13.60;8.25;;;23.50;98.50;;;;;;4972661;28;20093;-71
2021/09/15 12:05:44;;;;;;;9.60;7.97;;;23.50;98.50;;;;;;4973433;28;20428;-72
2021/09/15 12:08:10;;;;;;;11.57;7.85;;;23.40;98.50;;;;;;4972351;28;20054;-70
2021/09/15 12:10:36;;;;;;;12.48;8.48;;;23.50;98.60;;;;;;4972651;28;20502;-70
2021/09/15 12:13:02;;;;;;;9.82;8.02;;;23.40;98.90;;;;;;4971250;28;20131;-70
2021/09/15 12:15:28;;;;;;;13.52;8.30;;;23.50;98.90;;;;;;4972443;28;20071;-70
2021/09/15 12:18:00;;;;;;;14.70;9.15;;;23.40;98.80;;;;;;4971671;28;20049;-71
2021/09/15 12:20:40;;;;;;;17.27;10.70;;;23.40;99.00;;;;;;4971236;28;20393;-71
2021/09/15 12:23:05;;;;;;;14.27;9.43;;;23.40;99.30;;;;;;4971455;28;20034;-70
2021/09/15 12:25:31;;;;;;;13.48;7.78;;;23.50;99.30;;;;;;4972365;28;20345;-71
2021/09/15 12:27:57;;;;;;;13.95;8.38;;;23.50;99.20;;;;;;4972267;28;20449;-71
2021/09/15 12:30:23;;;;;;;13.00;8.02;;;23.60;99.20;;;;;;4972149;28;20042;-70
2021/09/15 12:32:57;;;;;;;19.42;11.90;;;23.60;99.20;;;;;;4972381;28;20053;-71
2021/09/15 12:35:26;;;;;;;15.07;9.20;;;23.60;99.00;;;;;;4971147;28;20101;-71
2021/09/15 12:38:04;;;;;;;10.52;7.75;;;23.60;98.90;;;;;;4972169;28;20031;-72
2021/09/15 12:40:31;;;;;;;11.02;8.13;;;23.50;98.80;;;;;;4971307;28;20039;-71
2021/09/15 12:43:00;;;;;;;14.57;8.73;;;23.60;99.00;;;;;;4972196;28;20047;-71
2021/09/15 12:45:26;;;;;;;11.65;8.15;;;23.60;98.90;;;;;;4972097;28;20039;-71
2021/09/15 12:47:52;;;;;;;11.45;7.75;;;23.60;99.00;;;;;;4972376;28;20101;-71